EZY97K EDDM-EDDF
Flight info
| Callsign | EZY97K |
|---|---|
| Flight time | 0h 37m |
| Altitude | 24000 |
| Route | GIVMI1N/26R GIVMI Y101 ERNAS T161 DEBHI DEBHI1B |
| Aircraft | A320/M-SDE3FGHIRWY/LB1 |
Departure
| Time | 2026-05-07 16:26 |
|---|---|
| Airport | Munich Airport (EDDM) |
Arrival
| Time | 2026-05-07 17:03 |
|---|---|
| Airport | Frankfurt Main Airport (EDDF) |
| Time | Latitude | Longitude | Altitude | Speed | Heading |
|---|---|---|---|---|---|
| 2026-05-07 16:01 | 48.35456 | 11.79307 | 1486 ft | 0 kts | 263° |
| 2026-05-07 16:16 | 48.35457 | 11.79321 | 1486 ft | 4 kts | 264° |
| 2026-05-07 16:16 | 48.35459 | 11.79362 | 1475 ft | 4 kts | 267° |
| 2026-05-07 16:16 | 48.35459 | 11.79402 | 1475 ft | 4 kts | 276° |
| 2026-05-07 16:17 | 48.35454 | 11.79440 | 1475 ft | 4 kts | 303° |
| 2026-05-07 16:17 | 48.35441 | 11.79457 | 1476 ft | 0 kts | 353° |
| 2026-05-07 16:19 | 48.35465 | 11.79453 | 1477 ft | 16 kts | 353° |
| 2026-05-07 16:19 | 48.35624 | 11.79417 | 1478 ft | 25 kts | 353° |
| 2026-05-07 16:20 | 48.35674 | 11.79410 | 1482 ft | 0 kts | 355° |
| 2026-05-07 16:20 | 48.35695 | 11.79425 | 1473 ft | 11 kts | 40° |
| 2026-05-07 16:20 | 48.35775 | 11.79526 | 1482 ft | 17 kts | 23° |
| 2026-05-07 16:20 | 48.35880 | 11.79520 | 1486 ft | 17 kts | 359° |
| 2026-05-07 16:21 | 48.35947 | 11.79504 | 1486 ft | 0 kts | 350° |
| 2026-05-07 16:22 | 48.35951 | 11.79503 | 1472 ft | 4 kts | 351° |
| 2026-05-07 16:22 | 48.36040 | 11.79483 | 1486 ft | 16 kts | 355° |
| 2026-05-07 16:22 | 48.36165 | 11.79465 | 1472 ft | 20 kts | 354° |
| 2026-05-07 16:23 | 48.36225 | 11.79596 | 1486 ft | 18 kts | 86° |
| 2026-05-07 16:23 | 48.36239 | 11.79789 | 1473 ft | 20 kts | 82° |
| 2026-05-07 16:23 | 48.36254 | 11.79958 | 1480 ft | 30 kts | 82° |
| 2026-05-07 16:23 | 48.36277 | 11.80281 | 1480 ft | 32 kts | 86° |
| 2026-05-07 16:24 | 48.36302 | 11.80631 | 1486 ft | 35 kts | 82° |
| 2026-05-07 16:24 | 48.36335 | 11.81002 | 1486 ft | 36 kts | 84° |
| 2026-05-07 16:24 | 48.36366 | 11.81387 | 1486 ft | 38 kts | 83° |
| 2026-05-07 16:24 | 48.36398 | 11.81788 | 1483 ft | 38 kts | 83° |
| 2026-05-07 16:25 | 48.36484 | 11.81999 | 1476 ft | 20 kts | 339° |
| 2026-05-07 16:25 | 48.36642 | 11.81947 | 1476 ft | 23 kts | 326° |
| 2026-05-07 16:25 | 48.36632 | 11.81441 | 1486 ft | 93 kts | 264° |
| 2026-05-07 16:25 | 48.36538 | 11.80074 | 1527 ft | 161 kts | 261° |
| 2026-05-07 16:26 | 48.36386 | 11.78270 | 2102 ft | 187 kts | 265° |
| 2026-05-07 16:26 | 48.36212 | 11.76239 | 2885 ft | 202 kts | 265° |
| 2026-05-07 16:26 | 48.36053 | 11.74058 | 3662 ft | 217 kts | 265° |
| 2026-05-07 16:26 | 48.35892 | 11.71782 | 4781 ft | 221 kts | 265° |
| 2026-05-07 16:27 | 48.35821 | 11.69464 | 5876 ft | 224 kts | 275° |
| 2026-05-07 16:27 | 48.36149 | 11.67174 | 6966 ft | 227 kts | 290° |
| 2026-05-07 16:27 | 48.36921 | 11.64965 | 7674 ft | 252 kts | 300° |
| 2026-05-07 16:27 | 48.37861 | 11.62641 | 8644 ft | 265 kts | 299° |
| 2026-05-07 16:28 | 48.38838 | 11.60252 | 9839 ft | 271 kts | 299° |
| 2026-05-07 16:28 | 48.39849 | 11.57785 | 10966 ft | 275 kts | 299° |
| 2026-05-07 16:28 | 48.40859 | 11.55316 | 12081 ft | 279 kts | 299° |
| 2026-05-07 16:28 | 48.41885 | 11.52805 | 13186 ft | 284 kts | 299° |
| 2026-05-07 16:29 | 48.42927 | 11.50245 | 14218 ft | 289 kts | 299° |
| 2026-05-07 16:29 | 48.43986 | 11.47642 | 15193 ft | 293 kts | 300° |
| 2026-05-07 16:29 | 48.45282 | 11.45225 | 16140 ft | 301 kts | 314° |
| 2026-05-07 16:29 | 48.46998 | 11.43347 | 16987 ft | 315 kts | 328° |
| 2026-05-07 16:30 | 48.49115 | 11.42170 | 17306 ft | 343 kts | 345° |
| 2026-05-07 16:30 | 48.51558 | 11.41510 | 17580 ft | 368 kts | 347° |
| 2026-05-07 16:30 | 48.54149 | 11.40828 | 17982 ft | 384 kts | 347° |
| 2026-05-07 16:30 | 48.56808 | 11.40123 | 18663 ft | 391 kts | 347° |
| 2026-05-07 16:31 | 48.59500 | 11.39400 | 19394 ft | 395 kts | 347° |
| 2026-05-07 16:31 | 48.62216 | 11.38659 | 20129 ft | 398 kts | 346° |
| 2026-05-07 16:31 | 48.64951 | 11.37907 | 20853 ft | 401 kts | 347° |
| 2026-05-07 16:31 | 48.67704 | 11.37099 | 21559 ft | 404 kts | 343° |
| 2026-05-07 16:32 | 48.70362 | 11.35741 | 22243 ft | 404 kts | 334° |
| 2026-05-07 16:32 | 48.72833 | 11.33736 | 22920 ft | 404 kts | 324° |
| 2026-05-07 16:32 | 48.75177 | 11.31364 | 23598 ft | 407 kts | 324° |
| 2026-05-07 16:32 | 48.77538 | 11.28968 | 23924 ft | 408 kts | 324° |
| 2026-05-07 16:33 | 48.79906 | 11.26566 | 24012 ft | 415 kts | 324° |
| 2026-05-07 16:33 | 48.82347 | 11.24090 | 24035 ft | 428 kts | 324° |
| 2026-05-07 16:33 | 48.84786 | 11.21450 | 24036 ft | 430 kts | 319° |
| 2026-05-07 16:33 | 48.87013 | 11.18417 | 24036 ft | 431 kts | 316° |
| 2026-05-07 16:34 | 48.89223 | 11.15338 | 24033 ft | 431 kts | 316° |
| 2026-05-07 16:34 | 48.91434 | 11.12253 | 24030 ft | 431 kts | 316° |
| 2026-05-07 16:34 | 48.93644 | 11.09165 | 24050 ft | 431 kts | 316° |
| 2026-05-07 16:34 | 48.95855 | 11.06076 | 24053 ft | 431 kts | 316° |
| 2026-05-07 16:35 | 48.98070 | 11.02981 | 24051 ft | 431 kts | 316° |
| 2026-05-07 16:35 | 49.00279 | 10.99887 | 24063 ft | 432 kts | 316° |
| 2026-05-07 16:35 | 49.02488 | 10.96787 | 24078 ft | 432 kts | 316° |
| 2026-05-07 16:35 | 49.04699 | 10.93676 | 24069 ft | 432 kts | 316° |
| 2026-05-07 16:36 | 49.06909 | 10.90560 | 24073 ft | 433 kts | 316° |
| 2026-05-07 16:36 | 49.09122 | 10.87444 | 24062 ft | 433 kts | 316° |
| 2026-05-07 16:36 | 49.11336 | 10.84330 | 24067 ft | 433 kts | 316° |
| 2026-05-07 16:36 | 49.13548 | 10.81210 | 24087 ft | 433 kts | 316° |
| 2026-05-07 16:37 | 49.15762 | 10.78075 | 24084 ft | 433 kts | 316° |
| 2026-05-07 16:37 | 49.17968 | 10.74941 | 24088 ft | 433 kts | 316° |
| 2026-05-07 16:37 | 49.20169 | 10.71794 | 24086 ft | 433 kts | 315° |
| 2026-05-07 16:37 | 49.22320 | 10.68568 | 24053 ft | 433 kts | 313° |
| 2026-05-07 16:38 | 49.24425 | 10.65265 | 24058 ft | 433 kts | 312° |
| 2026-05-07 16:38 | 49.26505 | 10.61918 | 24062 ft | 434 kts | 313° |
| 2026-05-07 16:38 | 49.28583 | 10.58553 | 24047 ft | 436 kts | 313° |
| 2026-05-07 16:38 | 49.30678 | 10.55178 | 24041 ft | 437 kts | 313° |
| 2026-05-07 16:39 | 49.32784 | 10.51817 | 24044 ft | 438 kts | 313° |
| 2026-05-07 16:39 | 49.34903 | 10.48457 | 24045 ft | 438 kts | 313° |
| 2026-05-07 16:39 | 49.36880 | 10.44876 | 24026 ft | 447 kts | 306° |
| 2026-05-07 16:39 | 49.38687 | 10.40948 | 23904 ft | 453 kts | 304° |
| 2026-05-07 16:40 | 49.40494 | 10.36984 | 23793 ft | 454 kts | 304° |
| 2026-05-07 16:40 | 49.42305 | 10.33008 | 23697 ft | 454 kts | 304° |
| 2026-05-07 16:40 | 49.44109 | 10.29041 | 23594 ft | 452 kts | 304° |
| 2026-05-07 16:40 | 49.45907 | 10.25087 | 23478 ft | 451 kts | 304° |
| 2026-05-07 16:41 | 49.47699 | 10.21144 | 23365 ft | 450 kts | 304° |
| 2026-05-07 16:41 | 49.49488 | 10.17203 | 23250 ft | 449 kts | 304° |
| 2026-05-07 16:41 | 49.51263 | 10.13286 | 23138 ft | 439 kts | 304° |
| 2026-05-07 16:41 | 49.52961 | 10.09537 | 23010 ft | 415 kts | 304° |
| 2026-05-07 16:42 | 49.54564 | 10.05984 | 22868 ft | 394 kts | 304° |
| 2026-05-07 16:42 | 49.56086 | 10.02603 | 22732 ft | 374 kts | 304° |
| 2026-05-07 16:42 | 49.57508 | 9.99443 | 22498 ft | 346 kts | 304° |
| 2026-05-07 16:42 | 49.58849 | 9.96457 | 21836 ft | 333 kts | 303° |
| 2026-05-07 16:43 | 49.60152 | 9.93559 | 21040 ft | 326 kts | 303° |
| 2026-05-07 16:43 | 49.61437 | 9.90700 | 20215 ft | 321 kts | 303° |
| 2026-05-07 16:43 | 49.62706 | 9.87875 | 19417 ft | 318 kts | 303° |
| 2026-05-07 16:43 | 49.63955 | 9.85088 | 18661 ft | 314 kts | 303° |
| 2026-05-07 16:44 | 49.65186 | 9.82331 | 17864 ft | 310 kts | 303° |
| 2026-05-07 16:44 | 49.66402 | 9.79603 | 17066 ft | 307 kts | 303° |
| 2026-05-07 16:44 | 49.67605 | 9.76907 | 16297 ft | 303 kts | 304° |
| 2026-05-07 16:44 | 49.68797 | 9.74239 | 15560 ft | 300 kts | 304° |
| 2026-05-07 16:45 | 49.69976 | 9.71597 | 14856 ft | 297 kts | 304° |
| 2026-05-07 16:45 | 49.71141 | 9.68981 | 14159 ft | 294 kts | 304° |
| 2026-05-07 16:45 | 49.72296 | 9.66384 | 13430 ft | 292 kts | 304° |
| 2026-05-07 16:45 | 49.73439 | 9.63813 | 12676 ft | 288 kts | 304° |
| 2026-05-07 16:46 | 49.74568 | 9.61271 | 11935 ft | 285 kts | 304° |
| 2026-05-07 16:46 | 49.75680 | 9.58758 | 11213 ft | 282 kts | 304° |
| 2026-05-07 16:46 | 49.76792 | 9.56251 | 10261 ft | 287 kts | 304° |
| 2026-05-07 16:46 | 49.77904 | 9.53744 | 9660 ft | 278 kts | 304° |
| 2026-05-07 16:47 | 49.78991 | 9.51286 | 9060 ft | 277 kts | 304° |
| 2026-05-07 16:47 | 49.80072 | 9.48838 | 8664 ft | 273 kts | 304° |
| 2026-05-07 16:47 | 49.81142 | 9.46414 | 8240 ft | 271 kts | 304° |
| 2026-05-07 16:47 | 49.82196 | 9.44020 | 7830 ft | 265 kts | 304° |
| 2026-05-07 16:48 | 49.83181 | 9.41775 | 7653 ft | 241 kts | 304° |
| 2026-05-07 16:48 | 49.84102 | 9.39676 | 7209 ft | 232 kts | 304° |
| 2026-05-07 16:48 | 49.84999 | 9.37633 | 7055 ft | 230 kts | 304° |
| 2026-05-07 16:48 | 49.85833 | 9.35522 | 7057 ft | 231 kts | 297° |
| 2026-05-07 16:49 | 49.86495 | 9.33251 | 7057 ft | 231 kts | 290° |
| 2026-05-07 16:49 | 49.86985 | 9.30877 | 7059 ft | 231 kts | 287° |
| 2026-05-07 16:49 | 49.87440 | 9.28489 | 7059 ft | 231 kts | 287° |
| 2026-05-07 16:49 | 49.87895 | 9.26107 | 6841 ft | 229 kts | 287° |
| 2026-05-07 16:50 | 49.88346 | 9.23747 | 6498 ft | 228 kts | 287° |
| 2026-05-07 16:50 | 49.88793 | 9.21403 | 6141 ft | 226 kts | 287° |
| 2026-05-07 16:50 | 49.89240 | 9.19063 | 5778 ft | 225 kts | 287° |
| 2026-05-07 16:50 | 49.89682 | 9.16739 | 5424 ft | 224 kts | 287° |
| 2026-05-07 16:51 | 49.90151 | 9.14440 | 5064 ft | 222 kts | 294° |
| 2026-05-07 16:51 | 49.91138 | 9.12652 | 4713 ft | 221 kts | 328° |
| 2026-05-07 16:51 | 49.92600 | 9.11944 | 4333 ft | 222 kts | 351° |
| 2026-05-07 16:51 | 49.94137 | 9.11696 | 4035 ft | 220 kts | 354° |
| 2026-05-07 16:52 | 49.95669 | 9.11491 | 4010 ft | 223 kts | 354° |
| 2026-05-07 16:52 | 49.97215 | 9.11289 | 4007 ft | 223 kts | 354° |
| 2026-05-07 16:52 | 49.98766 | 9.11087 | 4009 ft | 224 kts | 354° |
| 2026-05-07 16:52 | 50.00337 | 9.10884 | 4009 ft | 224 kts | 354° |
| 2026-05-07 16:53 | 50.01890 | 9.10684 | 4008 ft | 223 kts | 354° |
| 2026-05-07 16:53 | 50.03417 | 9.10485 | 4006 ft | 214 kts | 354° |
| 2026-05-07 16:53 | 50.04857 | 9.10299 | 4005 ft | 205 kts | 354° |
| 2026-05-07 16:53 | 50.06277 | 9.10150 | 4009 ft | 205 kts | 0° |
| 2026-05-07 16:54 | 50.07643 | 9.10709 | 4008 ft | 203 kts | 21° |
| 2026-05-07 16:54 | 50.08926 | 9.11625 | 4009 ft | 202 kts | 23° |
| 2026-05-07 16:54 | 50.10200 | 9.12552 | 4003 ft | 202 kts | 17° |
| 2026-05-07 16:54 | 50.11566 | 9.12627 | 4009 ft | 198 kts | 341° |
| 2026-05-07 16:55 | 50.12657 | 9.11388 | 4010 ft | 196 kts | 304° |
| 2026-05-07 16:55 | 50.13162 | 9.09436 | 4009 ft | 195 kts | 286° |
| 2026-05-07 16:55 | 50.13489 | 9.07388 | 4008 ft | 195 kts | 284° |
| 2026-05-07 16:55 | 50.13792 | 9.05327 | 4010 ft | 195 kts | 284° |
| 2026-05-07 16:56 | 50.14085 | 9.03280 | 4004 ft | 189 kts | 284° |
| 2026-05-07 16:56 | 50.14353 | 9.01304 | 4010 ft | 185 kts | 279° |
| 2026-05-07 16:56 | 50.13228 | 8.97850 | 4002 ft | 185 kts | 243° |
| 2026-05-07 16:57 | 50.12813 | 8.95980 | 4015 ft | 183 kts | 255° |
| 2026-05-07 16:57 | 50.12533 | 8.94743 | 4010 ft | 181 kts | 252° |
| 2026-05-07 16:57 | 50.12106 | 8.92939 | 4006 ft | 175 kts | 252° |
| 2026-05-07 16:57 | 50.11690 | 8.91171 | 4009 ft | 173 kts | 252° |
| 2026-05-07 16:58 | 50.11269 | 8.89380 | 4014 ft | 180 kts | 252° |
| 2026-05-07 16:58 | 50.10819 | 8.87459 | 4016 ft | 196 kts | 252° |
| 2026-05-07 16:58 | 50.10347 | 8.85457 | 3954 ft | 197 kts | 252° |
| 2026-05-07 16:58 | 50.09873 | 8.83446 | 3736 ft | 197 kts | 252° |
| 2026-05-07 16:59 | 50.09412 | 8.81491 | 3495 ft | 188 kts | 252° |
| 2026-05-07 16:59 | 50.08975 | 8.79638 | 3238 ft | 176 kts | 252° |
| 2026-05-07 16:59 | 50.08564 | 8.77898 | 3003 ft | 168 kts | 252° |
| 2026-05-07 16:59 | 50.08168 | 8.76217 | 2785 ft | 163 kts | 252° |
| 2026-05-07 17:00 | 50.07782 | 8.74585 | 2555 ft | 157 kts | 252° |
| 2026-05-07 17:00 | 50.07411 | 8.73016 | 2350 ft | 152 kts | 252° |
| 2026-05-07 17:00 | 50.07048 | 8.71480 | 2143 ft | 149 kts | 252° |
| 2026-05-07 17:00 | 50.06695 | 8.69989 | 1938 ft | 145 kts | 252° |
| 2026-05-07 17:01 | 50.06346 | 8.68518 | 1750 ft | 144 kts | 252° |
| 2026-05-07 17:01 | 50.06001 | 8.67064 | 1550 ft | 143 kts | 251° |
| 2026-05-07 17:01 | 50.05658 | 8.65615 | 1353 ft | 142 kts | 251° |
| 2026-05-07 17:01 | 50.05310 | 8.64145 | 1161 ft | 153 kts | 251° |
| 2026-05-07 17:02 | 50.04934 | 8.62538 | 1007 ft | 156 kts | 249° |
| 2026-05-07 17:02 | 50.04565 | 8.61042 | 757 ft | 146 kts | 249° |
| 2026-05-07 17:02 | 50.04215 | 8.59556 | 482 ft | 141 kts | 248° |
| 2026-05-07 17:02 | 50.03896 | 8.58197 | 397 ft | 126 kts | 247° |
| 2026-05-07 17:03 | 50.03607 | 8.57028 | 360 ft | 97 kts | 251° |
| 2026-05-07 17:03 | 50.03445 | 8.56283 | 359 ft | 52 kts | 253° |
| 2026-05-07 17:03 | 50.03453 | 8.55905 | 345 ft | 15 kts | 277° |
| 2026-05-07 17:03 | 50.03455 | 8.55883 | 345 ft | 0 kts | 276° |
| 2026-05-07 17:04 | 50.03456 | 8.55865 | 345 ft | 5 kts | 277° |
| 2026-05-07 17:04 | 50.03503 | 8.55705 | 350 ft | 9 kts | 331° |
| 2026-05-07 17:04 | 50.03509 | 8.55695 | 346 ft | 9 kts | 310° |
| 2026-05-07 17:04 | 50.03523 | 8.55513 | 356 ft | 8 kts | 322° |
| 2026-05-07 17:05 | 50.03564 | 8.55518 | 346 ft | 7 kts | 4° |
| 2026-05-07 17:05 | 50.03608 | 8.55524 | 349 ft | 6 kts | 7° |
| 2026-05-07 17:05 | 50.03641 | 8.55531 | 354 ft | 0 kts | 8° |
| 2026-05-07 17:06 | 50.03689 | 8.55541 | 348 ft | 20 kts | 8° |
| 2026-05-07 17:06 | 50.03836 | 8.55517 | 350 ft | 23 kts | 345° |
| 2026-05-07 17:06 | 50.03874 | 8.55497 | 355 ft | 0 kts | 339° |
| 2026-05-07 17:07 | 50.03941 | 8.55508 | 350 ft | 24 kts | 36° |
| 2026-05-07 17:07 | 50.03994 | 8.55705 | 351 ft | 20 kts | 69° |
| 2026-05-07 17:07 | 50.04045 | 8.55931 | 353 ft | 24 kts | 71° |
| 2026-05-07 17:08 | 50.04109 | 8.56189 | 356 ft | 27 kts | 70° |
| 2026-05-07 17:08 | 50.04180 | 8.56470 | 357 ft | 29 kts | 71° |
| 2026-05-07 17:08 | 50.04247 | 8.56768 | 360 ft | 29 kts | 70° |
| 2026-05-07 17:08 | 50.04321 | 8.57070 | 364 ft | 31 kts | 69° |
| 2026-05-07 17:09 | 50.04396 | 8.57398 | 365 ft | 33 kts | 70° |
| 2026-05-07 17:09 | 50.04481 | 8.57740 | 366 ft | 34 kts | 69° |
| 2026-05-07 17:09 | 50.04559 | 8.58035 | 366 ft | 12 kts | 44° |
| 2026-05-07 17:09 | 50.04599 | 8.58020 | 365 ft | 1 kts | 339° |
| 2026-05-07 17:10 | 50.04607 | 8.58016 | 362 ft | 0 kts | 339° |
| 2026-05-07 17:10 | 50.04610 | 8.58017 | 362 ft | 0 kts | 3° |
| 2026-05-07 17:10 | 50.04611 | 8.58020 | 360 ft | 1 kts | 26° |
| 2026-05-07 17:10 | 50.04637 | 8.58018 | 359 ft | 7 kts | 334° |
| 2026-05-07 17:11 | 50.04712 | 8.57955 | 361 ft | 15 kts | 341° |
| 2026-05-07 17:11 | 50.04788 | 8.58039 | 362 ft | 13 kts | 69° |
| 2026-05-07 17:11 | 50.04754 | 8.58085 | 360 ft | 5 kts | 164° |
| 2026-05-07 17:11 | 50.04726 | 8.58100 | 364 ft | 3 kts | 161° |
| 2026-05-07 17:12 | 50.04721 | 8.58102 | 363 ft | 0 kts | 160° |